Time;durP1;ratioP1;P1;durP2;ratioP2;P2;SDS_P1;SDS_P2;PMS_P1;PMS_P2;Temp;Humidity;BMP_temperature;BMP_pressure;BME280_temperature;BME280_humidity;BME280_pressure;Samples;Min_cycle;Max_cycle;Signal;HPM_P1;HPM_P2
2022/07/19 00:00:09;;;;;;;7.43;3.13;;;20.00;99.90;;;;;;4938334;28;20255;-70
2022/07/19 00:02:37;;;;;;;4.67;2.73;;;19.80;99.90;;;;;;4941002;28;20202;-69
2022/07/19 00:05:06;;;;;;;7.83;3.10;;;19.70;99.90;;;;;;4938702;28;20707;-70
2022/07/19 00:07:33;;;;;;;4.27;2.93;;;19.40;99.90;;;;;;4939852;29;20228;-70
2022/07/19 00:09:59;;;;;;;8.73;3.80;;;19.50;99.90;;;;;;4939162;28;20230;-70
2022/07/19 00:12:26;;;;;;;5.23;3.13;;;19.60;99.90;;;;;;4947787;28;20958;-69
2022/07/19 00:14:53;;;;;;;7.67;3.50;;;19.80;99.90;;;;;;4945765;28;20261;-69
2022/07/19 00:17:20;;;;;;;3.30;3.00;;;19.80;99.90;;;;;;4947749;29;20636;-69
2022/07/19 00:19:46;;;;;;;4.93;3.10;;;19.70;99.90;;;;;;4942461;28;20734;-69
2022/07/19 00:22:13;;;;;;;4.67;3.10;;;19.50;99.90;;;;;;4940571;29;20225;-70
2022/07/19 00:24:40;;;;;;;4.47;2.97;;;19.40;99.90;;;;;;4943311;28;20229;-70
2022/07/19 00:27:07;;;;;;;4.50;2.90;;;19.20;99.90;;;;;;4937134;28;20211;-69
2022/07/19 00:29:34;;;;;;;7.17;3.10;;;19.10;99.90;;;;;;4942231;29;20191;-69
2022/07/19 00:32:00;;;;;;;7.13;3.07;;;19.10;99.90;;;;;;4939041;28;20691;-69
2022/07/19 00:34:27;;;;;;;5.97;2.90;;;19.10;99.90;;;;;;4944309;28;20214;-70
2022/07/19 00:36:54;;;;;;;5.00;3.50;;;19.00;99.90;;;;;;4941083;28;20210;-69
2022/07/19 00:39:21;;;;;;;6.37;3.07;;;19.00;99.90;;;;;;4943080;29;20203;-69
2022/07/19 00:41:47;;;;;;;6.40;2.80;;;19.10;99.90;;;;;;4941316;28;20222;-70
2022/07/19 00:44:14;;;;;;;2.83;2.40;;;18.90;99.90;;;;;;4947751;29;20241;-70
2022/07/19 00:46:41;;;;;;;4.57;2.80;;;18.90;99.90;;;;;;4946599;28;20202;-69
2022/07/19 00:49:08;;;;;;;3.77;2.90;;;18.90;99.90;;;;;;4939986;28;20230;-69
2022/07/19 00:51:39;;;;;;;4.37;2.90;;;19.00;99.90;;;;;;4944242;29;20224;-69
2022/07/19 00:54:07;;;;;;;6.47;3.10;;;18.90;99.90;;;;;;4940587;29;20205;-69
2022/07/19 00:56:35;;;;;;;4.83;2.83;;;18.90;99.90;;;;;;4942937;28;20197;-69
2022/07/19 00:59:03;;;;;;;4.23;3.00;;;18.90;99.90;;;;;;4940966;28;20555;-69
2022/07/19 01:01:31;;;;;;;5.20;2.70;;;18.90;99.90;;;;;;4935394;29;20221;-69
2022/07/19 01:03:58;;;;;;;3.77;2.87;;;18.80;99.90;;;;;;4942890;29;20203;-69
2022/07/19 01:06:26;;;;;;;6.03;3.30;;;19.00;99.90;;;;;;4942013;29;20264;-69
2022/07/19 01:08:52;;;;;;;4.53;2.80;;;18.90;99.90;;;;;;4938632;28;20198;-69
2022/07/19 01:11:19;;;;;;;4.53;2.97;;;18.90;99.90;;;;;;4945971;28;20218;-69
2022/07/19 01:13:46;;;;;;;5.43;2.90;;;18.80;99.90;;;;;;4938293;28;20671;-69
2022/07/19 01:16:13;;;;;;;3.40;2.77;;;18.90;99.90;;;;;;4938375;28;20217;-69
2022/07/19 01:18:40;;;;;;;6.83;2.97;;;18.80;99.90;;;;;;4946794;28;20202;-69
2022/07/19 01:21:07;;;;;;;3.73;2.80;;;18.50;99.90;;;;;;4940422;28;20699;-69
2022/07/19 01:23:34;;;;;;;7.63;2.67;;;18.50;99.90;;;;;;4937065;28;20199;-69
2022/07/19 01:26:01;;;;;;;3.87;2.77;;;18.40;99.90;;;;;;4942388;29;20229;-69
2022/07/19 01:28:27;;;;;;;4.53;2.80;;;18.30;99.90;;;;;;4942756;28;20214;-69
2022/07/19 01:30:54;;;;;;;5.90;2.93;;;18.20;99.90;;;;;;4939101;29;20273;-69
2022/07/19 01:33:21;;;;;;;6.43;2.70;;;18.20;99.90;;;;;;4943517;28;20305;-69
2022/07/19 01:35:49;;;;;;;8.63;3.00;;;18.20;99.90;;;;;;4940022;28;20211;-69
2022/07/19 01:38:16;;;;;;;6.53;2.97;;;18.20;99.90;;;;;;4943635;28;20205;-69
2022/07/19 01:40:42;;;;;;;4.27;2.83;;;18.20;99.90;;;;;;4930051;28;20218;-69
2022/07/19 01:43:09;;;;;;;3.27;2.80;;;18.00;99.90;;;;;;4937645;28;20210;-69
2022/07/19 01:45:36;;;;;;;6.93;2.80;;;18.00;99.90;;;;;;4935153;29;20246;-69
2022/07/19 01:48:03;;;;;;;6.10;2.80;;;18.10;99.90;;;;;;4937785;29;20197;-69
2022/07/19 01:50:29;;;;;;;3.30;2.40;;;18.00;99.90;;;;;;4935667;28;20598;-69
2022/07/19 01:52:56;;;;;;;4.00;2.50;;;18.00;99.90;;;;;;4940923;28;20206;-68
2022/07/19 01:55:23;;;;;;;5.03;2.70;;;17.90;99.90;;;;;;4941956;28;20217;-69
2022/07/19 01:57:50;;;;;;;3.33;2.33;;;17.90;99.90;;;;;;4935378;28;20213;-69
2022/07/19 02:00:17;;;;;;;6.70;2.70;;;17.80;99.90;;;;;;4945992;28;20241;-69
2022/07/19 02:02:44;;;;;;;6.37;3.10;;;17.70;99.90;;;;;;4942229;29;20210;-69
2022/07/19 02:05:11;;;;;;;5.30;2.77;;;17.80;99.90;;;;;;4943523;29;20222;-69
2022/07/19 02:07:39;;;;;;;3.93;2.83;;;17.90;99.90;;;;;;4937349;28;20246;-69
2022/07/19 02:10:07;;;;;;;4.83;2.53;;;18.00;99.90;;;;;;4936462;29;20304;-69
2022/07/19 02:12:34;;;;;;;5.87;3.00;;;17.90;99.90;;;;;;4940471;28;20202;-69
2022/07/19 02:15:01;;;;;;;6.07;3.07;;;17.90;99.90;;;;;;4941529;28;20735;-69
2022/07/19 02:17:28;;;;;;;3.77;2.80;;;18.00;99.90;;;;;;4940885;28;20721;-68
2022/07/19 02:19:54;;;;;;;4.17;2.80;;;18.00;99.90;;;;;;4946714;28;20245;-69
2022/07/19 02:22:22;;;;;;;5.77;2.80;;;18.00;99.90;;;;;;4943093;28;20226;-69
2022/07/19 02:24:49;;;;;;;5.67;3.10;;;18.10;99.90;;;;;;4950628;29;20241;-68
2022/07/19 02:27:15;;;;;;;6.43;3.10;;;18.20;99.90;;;;;;4937655;29;20199;-69
2022/07/19 02:29:42;;;;;;;4.03;2.90;;;18.20;99.90;;;;;;4938267;28;20609;-69
2022/07/19 02:32:09;;;;;;;4.73;2.80;;;18.10;99.90;;;;;;4942931;28;20206;-69
2022/07/19 02:34:35;;;;;;;5.50;2.77;;;17.90;99.90;;;;;;4943308;28;20215;-69
2022/07/19 02:37:02;;;;;;;6.93;3.10;;;17.80;99.90;;;;;;4943777;29;20194;-69
2022/07/19 02:39:29;;;;;;;3.77;2.93;;;17.70;99.90;;;;;;4950503;28;20205;-69
2022/07/19 02:41:56;;;;;;;4.77;3.13;;;17.70;99.90;;;;;;4945368;28;20198;-69
2022/07/19 02:44:23;;;;;;;6.40;3.43;;;17.80;99.90;;;;;;4950853;28;20690;-69
2022/07/19 02:46:49;;;;;;;4.93;3.00;;;17.80;99.90;;;;;;4939470;28;20226;-69
2022/07/19 02:49:16;;;;;;;4.03;2.83;;;17.80;99.90;;;;;;4939093;28;20213;-70
2022/07/19 02:51:43;;;;;;;4.00;2.77;;;17.70;99.90;;;;;;4945947;28;20214;-69
2022/07/19 02:54:09;;;;;;;5.17;2.97;;;17.50;99.90;;;;;;4938713;28;20655;-68
2022/07/19 02:56:36;;;;;;;4.17;2.90;;;17.30;99.90;;;;;;4949948;29;20206;-68
2022/07/19 02:59:04;;;;;;;4.57;2.90;;;17.20;99.90;;;;;;4951835;29;20204;-69
2022/07/19 03:01:31;;;;;;;3.90;3.00;;;17.20;99.90;;;;;;4944033;28;20305;-69
2022/07/19 03:03:59;;;;;;;5.57;2.90;;;17.10;99.90;;;;;;4947391;29;20570;-69
2022/07/19 03:06:27;;;;;;;4.90;3.50;;;17.10;99.90;;;;;;4942323;29;20695;-69
2022/07/19 03:08:53;;;;;;;5.90;3.10;;;17.20;99.90;;;;;;4948088;29;20334;-68
2022/07/19 03:11:20;;;;;;;3.90;2.97;;;17.20;99.90;;;;;;4940244;28;20301;-69
2022/07/19 03:13:47;;;;;;;3.20;2.77;;;17.10;99.90;;;;;;4943082;29;20198;-69
2022/07/19 03:16:14;;;;;;;4.20;2.47;;;17.00;99.90;;;;;;4945467;28;20203;-70
2022/07/19 03:18:41;;;;;;;4.60;3.13;;;16.90;99.90;;;;;;4942050;29;20202;-69
2022/07/19 03:21:08;;;;;;;3.93;2.93;;;16.90;99.90;;;;;;4940121;28;20222;-69
2022/07/19 03:23:35;;;;;;;4.80;2.60;;;16.80;99.90;;;;;;4947643;28;20229;-69
2022/07/19 03:26:03;;;;;;;4.67;3.10;;;16.80;99.90;;;;;;4940071;28;20229;-69
2022/07/19 03:28:30;;;;;;;5.47;3.30;;;16.90;99.90;;;;;;4944902;28;20204;-69
2022/07/19 03:30:57;;;;;;;5.07;3.13;;;16.90;99.90;;;;;;4946939;29;20586;-69
2022/07/19 03:33:24;;;;;;;4.27;3.20;;;16.90;99.90;;;;;;4942667;28;20214;-69
2022/07/19 03:35:50;;;;;;;4.60;2.80;;;16.80;99.90;;;;;;4936229;29;20222;-69
2022/07/19 03:38:17;;;;;;;5.23;2.63;;;16.80;99.90;;;;;;4938111;28;20571;-69
2022/07/19 03:40:47;;;;;;;3.53;2.83;;;16.70;99.90;;;;;;4943636;28;20252;-69
2022/07/19 03:43:15;;;;;;;4.90;2.97;;;16.70;99.90;;;;;;4940055;28;20213;-69
2022/07/19 03:45:43;;;;;;;5.60;3.40;;;16.60;99.90;;;;;;4944198;29;20260;-69
2022/07/19 03:48:10;;;;;;;8.03;3.47;;;16.60;99.90;;;;;;4945515;28;20209;-69
2022/07/19 03:50:38;;;;;;;7.10;2.93;;;16.60;99.90;;;;;;4934028;29;20214;-69
2022/07/19 03:53:05;;;;;;;4.20;2.73;;;16.70;99.90;;;;;;4939573;29;20283;-68
2022/07/19 03:55:32;;;;;;;6.13;3.27;;;16.70;99.90;;;;;;4947089;28;20198;-69
2022/07/19 03:57:59;;;;;;;4.17;2.93;;;16.70;99.90;;;;;;4946868;29;20195;-69
2022/07/19 04:00:26;;;;;;;4.70;2.83;;;16.70;99.90;;;;;;4939554;28;20592;-68
2022/07/19 04:02:53;;;;;;;10.87;3.17;;;16.60;99.90;;;;;;4941602;28;20465;-68
2022/07/19 04:05:20;;;;;;;5.17;3.10;;;16.90;99.90;;;;;;4936078;29;20347;-68
2022/07/19 04:07:46;;;;;;;11.40;3.80;;;17.00;99.90;;;;;;4941000;29;20199;-68
2022/07/19 04:10:13;;;;;;;3.93;2.97;;;16.90;99.90;;;;;;4935689;28;20214;-69
2022/07/19 04:12:40;;;;;;;6.00;2.83;;;17.10;99.90;;;;;;4943738;28;20198;-69
2022/07/19 04:15:08;;;;;;;5.60;2.97;;;17.00;99.90;;;;;;4934155;29;20660;-69
2022/07/19 04:17:35;;;;;;;6.13;3.13;;;17.00;99.90;;;;;;4936615;29;20207;-69
2022/07/19 04:20:02;;;;;;;6.87;3.13;;;17.00;99.90;;;;;;4938491;28;20218;-69
2022/07/19 04:22:28;;;;;;;4.47;3.30;;;17.10;99.90;;;;;;4939444;28;20207;-69
2022/07/19 04:24:55;;;;;;;7.17;3.10;;;17.30;99.90;;;;;;4941690;28;21730;-69
2022/07/19 04:27:22;;;;;;;5.20;3.07;;;17.40;99.90;;;;;;4947036;29;20600;-69
2022/07/19 04:29:48;;;;;;;5.30;3.40;;;17.30;99.90;;;;;;4942864;28;20242;-69
2022/07/19 04:32:15;;;;;;;9.23;3.90;;;17.40;99.90;;;;;;4941729;28;20569;-69
2022/07/19 04:34:47;;;;;;;5.90;3.33;;;17.30;99.90;;;;;;4935862;28;20212;-69
2022/07/19 04:37:13;;;;;;;4.83;3.10;;;17.40;99.90;;;;;;4938721;29;20199;-69
2022/07/19 04:39:40;;;;;;;5.73;3.37;;;17.40;99.90;;;;;;4950573;28;20194;-69
2022/07/19 04:42:07;;;;;;;7.50;3.33;;;17.30;99.90;;;;;;4940675;28;20198;-69
2022/07/19 04:44:34;;;;;;;8.50;3.60;;;17.40;99.90;;;;;;4946152;28;20202;-69
2022/07/19 04:47:00;;;;;;;4.00;2.80;;;17.50;99.90;;;;;;4938135;28;20698;-69
2022/07/19 04:49:27;;;;;;;7.27;3.03;;;17.50;99.90;;;;;;4935311;29;20258;-69
2022/07/19 04:51:54;;;;;;;7.13;3.03;;;17.50;99.90;;;;;;4940428;29;20931;-69
2022/07/19 04:54:21;;;;;;;5.83;3.53;;;17.50;99.90;;;;;;4931417;28;20199;-69
2022/07/19 04:56:47;;;;;;;5.77;3.10;;;17.60;99.90;;;;;;4940092;28;20211;-68
2022/07/19 04:59:14;;;;;;;6.00;3.30;;;17.60;99.90;;;;;;4935147;28;20203;-69
2022/07/19 05:01:41;;;;;;;7.63;3.53;;;17.70;99.90;;;;;;4941972;28;20231;-68
2022/07/19 05:04:14;;;;;;;6.87;2.93;;;17.90;99.90;;;;;;4931832;28;20207;-68
2022/07/19 05:06:42;;;;;;;6.30;3.10;;;17.90;99.90;;;;;;4940578;29;20596;-68
2022/07/19 05:09:09;;;;;;;5.90;3.10;;;18.00;99.90;;;;;;4944728;28;20191;-69
2022/07/19 05:11:36;;;;;;;7.23;3.30;;;18.10;99.90;;;;;;4942124;29;20236;-67
2022/07/19 05:14:03;;;;;;;4.93;3.30;;;18.10;99.90;;;;;;4941280;28;20643;-67
2022/07/19 05:16:30;;;;;;;6.13;3.20;;;18.20;99.90;;;;;;4942338;28;20230;-67
2022/07/19 05:18:57;;;;;;;4.63;3.17;;;18.20;99.90;;;;;;4942452;29;20206;-67
2022/07/19 05:21:24;;;;;;;4.97;3.20;;;18.30;99.90;;;;;;4938306;28;20507;-67
2022/07/19 05:23:50;;;;;;;6.73;3.30;;;18.30;99.90;;;;;;4939237;28;20213;-67
2022/07/19 05:26:17;;;;;;;6.97;3.37;;;18.40;99.90;;;;;;4943763;28;20214;-67
2022/07/19 05:28:44;;;;;;;7.70;3.30;;;18.50;99.90;;;;;;4943093;28;20201;-68
2022/07/19 05:31:10;;;;;;;5.37;3.27;;;18.60;99.90;;;;;;4937959;28;20223;-69
2022/07/19 05:33:37;;;;;;;6.27;3.00;;;18.80;99.90;;;;;;4936716;28;20226;-68
2022/07/19 05:36:04;;;;;;;6.87;3.20;;;19.00;99.90;;;;;;4938912;28;20218;-68
2022/07/19 05:38:34;;;;;;;6.77;3.90;;;19.20;99.90;;;;;;4939187;29;20202;-69
2022/07/19 05:41:00;;;;;;;7.77;3.60;;;19.40;99.90;;;;;;4937110;28;20740;-67
2022/07/19 05:43:27;;;;;;;12.13;4.10;;;19.40;99.90;;;;;;4948034;29;20210;-69
2022/07/19 05:45:54;;;;;;;10.40;4.37;;;19.40;99.90;;;;;;4936719;28;20694;-71
2022/07/19 05:48:21;;;;;;;8.60;4.50;;;19.50;99.90;;;;;;4947052;28;20225;-68
2022/07/19 05:50:47;;;;;;;7.40;4.60;;;19.80;99.90;;;;;;4937143;28;20222;-69
2022/07/19 05:53:17;;;;;;;8.60;4.50;;;19.90;99.90;;;;;;4945162;29;20213;-68
2022/07/19 05:55:44;;;;;;;16.47;5.50;;;20.30;99.90;;;;;;4946748;29;20202;-69
2022/07/19 05:58:10;;;;;;;14.90;4.43;;;20.70;99.90;;;;;;4941629;28;20209;-67
2022/07/19 06:00:37;;;;;;;9.60;3.63;;;21.20;99.90;;;;;;4926443;28;20256;-72
2022/07/19 06:03:04;;;;;;;13.20;3.90;;;21.20;99.90;;;;;;4943506;29;20195;-69
2022/07/19 06:05:31;;;;;;;6.70;3.43;;;21.00;99.90;;;;;;4942241;28;20206;-69
2022/07/19 06:07:57;;;;;;;4.63;3.33;;;20.90;99.90;;;;;;4944401;29;20213;-69
2022/07/19 06:10:24;;;;;;;7.33;3.30;;;20.90;99.90;;;;;;4948589;29;20222;-70
2022/07/19 06:12:51;;;;;;;4.57;3.20;;;20.90;99.90;;;;;;4947784;29;20206;-70
2022/07/19 06:15:17;;;;;;;6.13;3.20;;;20.80;99.90;;;;;;4949201;29;20206;-70
2022/07/19 06:17:44;;;;;;;4.47;2.93;;;20.80;99.90;;;;;;4939311;29;20581;-66
2022/07/19 06:20:11;;;;;;;8.30;3.20;;;20.90;99.90;;;;;;4948034;29;20603;-66
2022/07/19 06:22:37;;;;;;;6.23;3.50;;;21.00;99.90;;;;;;4937901;28;20257;-66
2022/07/19 06:25:06;;;;;;;5.05;2.92;;;21.20;99.90;;;;;;4941644;29;20198;-68
2022/07/19 06:27:33;;;;;;;5.30;3.23;;;21.30;99.90;;;;;;4948847;28;20221;-65
2022/07/19 06:30:02;;;;;;;9.15;4.15;;;21.40;99.90;;;;;;4944365;28;20221;-65
2022/07/19 06:32:29;;;;;;;6.35;4.00;;;21.60;99.90;;;;;;4940419;28;20200;-65
2022/07/19 06:34:55;;;;;;;7.70;4.15;;;21.70;99.90;;;;;;4956206;28;20654;-66
2022/07/19 06:37:22;;;;;;;8.05;4.60;;;21.90;99.90;;;;;;4941973;28;20209;-65
2022/07/19 06:39:49;;;;;;;11.88;6.10;;;21.90;99.90;;;;;;4944494;28;20631;-65
2022/07/19 06:42:15;;;;;;;9.98;6.20;;;21.90;99.90;;;;;;4939259;29;20198;-65
2022/07/19 06:44:42;;;;;;;12.57;6.30;;;21.90;99.90;;;;;;4941596;28;20199;-65
2022/07/19 06:47:09;;;;;;;14.90;6.07;;;22.10;99.90;;;;;;4942986;29;20215;-65
2022/07/19 06:49:35;;;;;;;9.70;5.15;;;22.10;99.90;;;;;;4937396;29;20194;-65
2022/07/19 06:52:02;;;;;;;8.15;4.13;;;22.30;99.90;;;;;;4944431;29;20206;-65
2022/07/19 06:54:29;;;;;;;9.48;4.57;;;22.30;99.90;;;;;;4946417;29;20281;-68
2022/07/19 06:56:55;;;;;;;7.95;4.22;;;22.40;99.90;;;;;;4944420;28;20210;-67
2022/07/19 06:59:22;;;;;;;8.43;4.70;;;22.60;99.90;;;;;;4941282;28;20207;-68
2022/07/19 07:01:49;;;;;;;9.95;4.40;;;22.80;99.90;;;;;;4945465;28;20218;-72
2022/07/19 07:04:16;;;;;;;7.65;3.60;;;23.10;99.90;;;;;;4947568;29;20202;-67
2022/07/19 07:06:53;;;;;;;5.63;3.67;;;23.40;99.90;;;;;;4949329;28;20308;-68
2022/07/19 07:09:19;;;;;;;5.78;3.30;;;24.00;99.90;;;;;;4945679;29;20552;-68
2022/07/19 07:11:46;;;;;;;5.82;3.20;;;24.90;99.90;;;;;;4942377;29;20650;-68
2022/07/19 07:14:13;;;;;;;5.88;3.47;;;25.70;99.90;;;;;;4950184;28;20198;-68
2022/07/19 07:16:40;;;;;;;6.65;3.20;;;26.60;99.90;;;;;;4940425;29;20215;-68
2022/07/19 07:19:07;;;;;;;7.63;3.08;;;27.10;99.90;;;;;;4947614;28;20648;-68
2022/07/19 07:21:35;;;;;;;6.38;2.83;;;27.40;99.90;;;;;;4939689;29;20324;-68
2022/07/19 07:24:03;;;;;;;4.78;2.88;;;28.10;99.90;;;;;;4940105;29;20215;-69
2022/07/19 07:26:31;;;;;;;7.47;3.17;;;28.50;99.90;;;;;;4939930;29;20309;-68
2022/07/19 07:28:58;;;;;;;6.35;2.92;;;28.80;99.90;;;;;;4941499;29;20199;-68
2022/07/19 07:31:25;;;;;;;7.70;2.90;;;29.30;99.00;;;;;;4947502;28;20249;-68
2022/07/19 07:33:52;;;;;;;7.07;3.10;;;29.60;98.10;;;;;;4938186;28;20210;-68
2022/07/19 07:36:19;;;;;;;6.63;2.88;;;30.10;97.30;;;;;;4936586;29;20225;-68
2022/07/19 07:38:45;;;;;;;9.57;3.42;;;30.40;97.20;;;;;;4937609;28;20209;-68
2022/07/19 07:41:12;;;;;;;9.38;3.88;;;30.60;96.60;;;;;;4936788;29;20222;-68
2022/07/19 07:43:59;;;;;;;9.27;3.70;;;30.80;96.40;;;;;;4938221;28;20202;-68
2022/07/19 07:46:25;;;;;;;9.52;3.80;;;30.80;95.90;;;;;;4944418;29;20233;-69
2022/07/19 07:48:52;;;;;;;6.35;3.60;;;30.60;95.90;;;;;;4950650;28;20209;-70
2022/07/19 07:51:22;;;;;;;7.47;3.60;;;30.40;96.20;;;;;;4943339;28;20250;-70
2022/07/19 07:54:09;;;;;;;9.55;3.65;;;30.30;96.30;;;;;;4951240;28;20194;-69
2022/07/19 07:56:36;;;;;;;9.38;3.95;;;30.20;96.40;;;;;;4947094;29;20206;-69
2022/07/19 07:59:03;;;;;;;6.68;3.42;;;30.20;96.00;;;;;;4936673;29;20195;-68
2022/07/19 08:01:30;;;;;;;11.23;3.63;;;30.30;96.00;;;;;;4948331;29;20237;-69
2022/07/19 08:03:57;;;;;;;9.52;3.30;;;30.50;96.10;;;;;;4947950;29;20671;-69
2022/07/19 08:06:24;;;;;;;8.30;3.83;;;30.60;95.80;;;;;;4948183;29;20293;-69
2022/07/19 08:08:51;;;;;;;8.30;3.40;;;30.70;95.40;;;;;;4944956;28;20228;-69
2022/07/19 08:11:18;;;;;;;8.23;3.03;;;30.70;95.20;;;;;;4941755;28;20214;-69
2022/07/19 08:13:44;;;;;;;9.25;3.53;;;30.40;95.30;;;;;;4940099;28;20199;-69
2022/07/19 08:16:11;;;;;;;12.10;3.60;;;30.40;95.50;;;;;;4942340;29;20195;-69
2022/07/19 08:18:38;;;;;;;8.07;3.10;;;30.30;95.50;;;;;;4940881;28;20202;-69
2022/07/19 08:21:05;;;;;;;11.50;3.70;;;30.50;95.60;;;;;;4946075;29;20237;-69
2022/07/19 08:23:31;;;;;;;10.10;3.53;;;30.60;94.70;;;;;;4945317;28;20198;-69
2022/07/19 08:25:58;;;;;;;4.57;2.90;;;30.50;94.50;;;;;;4941419;28;20199;-69
2022/07/19 08:28:25;;;;;;;9.32;3.28;;;30.60;94.90;;;;;;4940217;28;20644;-69
2022/07/19 08:30:52;;;;;;;8.63;3.67;;;30.70;94.10;;;;;;4945055;28;20222;-69
2022/07/19 08:33:38;;;;;;;11.82;3.50;;;30.80;94.40;;;;;;4949422;29;20205;-68
2022/07/19 08:36:05;;;;;;;6.80;3.17;;;30.70;93.70;;;;;;4942882;29;20302;-69
2022/07/19 08:38:32;;;;;;;5.68;3.22;;;30.80;93.60;;;;;;4945869;29;20202;-69
2022/07/19 08:41:01;;;;;;;6.80;3.10;;;30.90;93.30;;;;;;4944499;28;20619;-69
2022/07/19 08:43:27;;;;;;;5.10;2.95;;;31.10;93.00;;;;;;4935547;28;20663;-69
2022/07/19 08:45:57;;;;;;;8.52;2.97;;;31.30;92.70;;;;;;4940878;29;20312;-69
2022/07/19 08:48:24;;;;;;;7.18;2.30;;;31.50;91.60;;;;;;4945400;29;20309;-68
2022/07/19 08:50:56;;;;;;;6.45;2.60;;;31.60;91.20;;;;;;4946125;28;20211;-68
2022/07/19 08:53:24;;;;;;;5.47;2.60;;;31.70;90.50;;;;;;4946957;28;20658;-69
2022/07/19 08:55:51;;;;;;;7.38;2.60;;;31.70;90.00;;;;;;4937473;29;20194;-69
2022/07/19 08:58:18;;;;;;;6.65;2.95;;;31.90;89.70;;;;;;4947898;28;20206;-69
2022/07/19 09:00:45;;;;;;;8.20;2.50;;;31.90;89.30;;;;;;4940558;28;20898;-69
2022/07/19 09:03:12;;;;;;;7.28;2.35;;;31.90;90.30;;;;;;4939216;28;20202;-69
2022/07/19 09:05:39;;;;;;;11.98;2.60;;;32.10;89.40;;;;;;4945511;29;20206;-70
2022/07/19 09:08:18;;;;;;;7.50;2.70;;;32.30;87.90;;;;;;4940671;29;20606;-69
2022/07/19 09:13:33;;;;;;;8.85;2.45;;;32.50;87.40;;;;;;4946380;28;20202;-70
2022/07/19 09:16:00;;;;;;;4.78;2.53;;;32.60;86.90;;;;;;4947191;29;20250;-69
2022/07/19 09:18:32;;;;;;;4.10;2.60;;;32.80;87.10;;;;;;4941778;29;20206;-69
2022/07/19 09:21:01;;;;;;;9.85;2.75;;;32.80;86.70;;;;;;4939942;29;20219;-69
2022/07/19 09:23:29;;;;;;;9.45;2.60;;;33.00;85.80;;;;;;4942675;28;20202;-69
2022/07/19 09:25:58;;;;;;;9.30;2.78;;;32.80;85.50;;;;;;4944026;29;20703;-69
2022/07/19 09:28:27;;;;;;;6.97;2.78;;;32.80;86.70;;;;;;4945136;28;20229;-70
2022/07/19 09:30:55;;;;;;;9.02;3.47;;;32.80;85.60;;;;;;4945172;28;20214;-69
2022/07/19 09:33:26;;;;;;;6.32;2.60;;;32.90;85.30;;;;;;4945382;28;20198;-70
2022/07/19 09:35:56;;;;;;;5.70;2.75;;;32.80;85.00;;;;;;4933096;28;20399;-69
2022/07/19 09:38:28;;;;;;;8.50;2.60;;;32.90;86.70;;;;;;4949914;28;20375;-69
2022/07/19 09:41:13;;;;;;;7.35;2.30;;;33.00;86.90;;;;;;4942618;28;20222;-69
2022/07/19 09:44:03;;;;;;;12.60;2.83;;;33.20;84.30;;;;;;4940767;28;20245;-69
2022/07/19 09:46:42;;;;;;;3.25;2.47;;;33.40;84.50;;;;;;4944051;29;20206;-70
2022/07/19 09:49:12;;;;;;;13.68;3.40;;;33.50;85.50;;;;;;4947964;29;20198;-68
2022/07/19 09:51:42;;;;;;;9.38;2.70;;;33.80;86.00;;;;;;4944480;29;20222;-68
2022/07/19 09:54:13;;;;;;;9.88;2.65;;;34.00;85.10;;;;;;4934740;29;20205;-68
2022/07/19 09:56:43;;;;;;;4.85;2.20;;;34.10;85.10;;;;;;4943244;28;20396;-68
2022/07/19 09:59:09;;;;;;;4.60;2.08;;;34.20;82.90;;;;;;4942135;29;20416;-69
2022/07/19 10:01:40;;;;;;;6.53;2.38;;;34.30;82.20;;;;;;4937420;28;20736;-68
2022/07/19 10:04:14;;;;;;;5.45;2.63;;;34.40;82.40;;;;;;4944759;29;20195;-68
2022/07/19 10:06:43;;;;;;;5.22;2.20;;;34.40;81.40;;;;;;4943813;28;20201;-68
2022/07/19 10:09:12;;;;;;;4.38;2.33;;;34.50;81.80;;;;;;4938426;29;20661;-69
2022/07/19 10:11:39;;;;;;;4.07;2.50;;;34.60;81.50;;;;;;4945249;28;20226;-68
2022/07/19 10:14:06;;;;;;;5.40;2.30;;;34.70;80.90;;;;;;4937406;29;20590;-68
2022/07/19 10:17:05;;;;;;;2.85;2.13;;;34.70;79.70;;;;;;4944907;29;20261;-68
2022/07/19 10:19:42;;;;;;;4.85;2.30;;;34.70;79.70;;;;;;4926647;29;20587;-68
2022/07/19 10:22:23;;;;;;;5.15;2.33;;;34.80;79.30;;;;;;4943960;29;20289;-68
2022/07/19 10:24:55;;;;;;;5.30;2.28;;;34.90;79.00;;;;;;4941847;28;20198;-69
2022/07/19 10:27:55;;;;;;;8.00;3.40;;;35.00;78.30;;;;;;4937386;29;20310;-69
2022/07/19 10:30:40;;;;;;;8.82;2.47;;;35.00;78.60;;;;;;4938980;29;20494;-68
2022/07/19 10:33:37;;;;;;;6.38;2.30;;;35.30;76.80;;;;;;4940681;29;20199;-69
2022/07/19 10:36:42;;;;;;;3.38;2.17;;;35.30;76.30;;;;;;4937637;29;20217;-68
2022/07/19 10:39:21;;;;;;;3.22;2.05;;;35.40;77.10;;;;;;4943698;29;20195;-68
2022/07/19 10:42:22;;;;;;;4.28;2.20;;;35.50;75.30;;;;;;4942286;28;20424;-68
2022/07/19 10:44:55;;;;;;;2.85;2.03;;;35.50;74.90;;;;;;4938717;29;20203;-70
2022/07/19 10:47:22;;;;;;;5.75;2.10;;;35.50;75.40;;;;;;4942888;29;20229;-70
2022/07/19 10:49:49;;;;;;;4.75;2.20;;;35.70;74.20;;;;;;4944457;28;20237;-70
2022/07/19 10:52:32;;;;;;;2.95;2.30;;;35.80;75.10;;;;;;4945122;29;20676;-70
2022/07/19 10:55:22;;;;;;;3.78;2.22;;;35.90;74.90;;;;;;4957749;28;20318;-70
2022/07/19 10:57:52;;;;;;;2.88;2.00;;;35.90;74.40;;;;;;4943789;29;20313;-70
2022/07/19 11:00:28;;;;;;;10.80;2.65;;;36.00;74.60;;;;;;4942647;28;20225;-70
2022/07/19 11:03:22;;;;;;;2.22;1.90;;;36.00;72.40;;;;;;4948130;28;20212;-70
2022/07/19 11:05:59;;;;;;;2.58;1.90;;;36.00;73.00;;;;;;4940045;28;20229;-70
2022/07/19 11:08:38;;;;;;;7.18;2.40;;;36.00;73.20;;;;;;4944529;29;20237;-70
2022/07/19 11:11:16;;;;;;;2.35;1.90;;;36.10;74.00;;;;;;4941219;29;20217;-70
2022/07/19 11:13:45;;;;;;;3.15;2.00;;;36.10;73.70;;;;;;4943040;28;20201;-70
2022/07/19 11:16:13;;;;;;;4.78;2.17;;;36.20;73.30;;;;;;4946252;29;20198;-70
2022/07/19 11:18:40;;;;;;;2.35;1.75;;;36.30;72.90;;;;;;4941080;28;20230;-70
2022/07/19 11:21:07;;;;;;;9.27;2.30;;;36.30;73.10;;;;;;4943766;28;20254;-70
2022/07/19 11:23:36;;;;;;;3.58;1.92;;;36.40;71.90;;;;;;4947423;28;20213;-70
2022/07/19 11:26:12;;;;;;;2.60;1.80;;;36.30;72.40;;;;;;4939793;28;20215;-68
2022/07/19 11:28:41;;;;;;;2.60;2.00;;;36.40;71.00;;;;;;4944647;28;20225;-68
2022/07/19 11:31:22;;;;;;;3.50;2.00;;;36.40;72.40;;;;;;4938285;29;20278;-68
2022/07/19 11:33:53;;;;;;;2.85;1.80;;;36.50;71.40;;;;;;4943922;29;20224;-68
2022/07/19 11:36:20;;;;;;;3.90;1.98;;;36.50;71.70;;;;;;4945252;29;20583;-69
2022/07/19 11:38:50;;;;;;;6.28;2.75;;;36.40;70.80;;;;;;4943978;28;20202;-68
2022/07/19 11:41:20;;;;;;;5.00;2.13;;;36.50;70.40;;;;;;4941968;28;20222;-68
2022/07/19 11:43:56;;;;;;;5.15;2.50;;;36.60;70.80;;;;;;4940568;29;20214;-68
2022/07/19 11:46:28;;;;;;;6.63;2.30;;;36.60;71.60;;;;;;4937641;29;20246;-70
2022/07/19 11:48:59;;;;;;;7.28;2.67;;;36.70;71.50;;;;;;4943056;29;20316;-70
2022/07/19 11:51:27;;;;;;;5.82;2.33;;;36.80;71.90;;;;;;4945929;28;20213;-70
2022/07/19 11:53:55;;;;;;;5.22;2.42;;;36.80;71.60;;;;;;4938765;28;20198;-70
2022/07/19 11:56:28;;;;;;;5.53;2.53;;;36.90;71.90;;;;;;4941542;29;20701;-68
2022/07/19 11:58:58;;;;;;;2.83;2.47;;;36.90;72.00;;;;;;4933244;29;20214;-68
2022/07/19 12:01:37;;;;;;;3.20;2.30;;;37.00;71.40;;;;;;4938414;29;20233;-69
2022/07/19 12:04:12;;;;;;;2.55;2.10;;;37.00;71.50;;;;;;4942651;29;20214;-69
2022/07/19 12:06:47;;;;;;;3.53;2.42;;;37.10;70.40;;;;;;4941853;29;20708;-69
2022/07/19 12:09:18;;;;;;;4.07;2.60;;;37.10;70.00;;;;;;4945048;28;20217;-68
2022/07/19 12:11:50;;;;;;;8.60;2.70;;;36.90;71.80;;;;;;4930660;29;20298;-69
2022/07/19 12:14:37;;;;;;;4.45;2.50;;;37.00;70.70;;;;;;4943047;29;20414;-68
2022/07/19 12:17:17;;;;;;;5.78;2.67;;;36.80;70.70;;;;;;4939960;29;20366;-68
2022/07/19 12:20:06;;;;;;;4.35;2.20;;;36.80;71.80;;;;;;4942539;28;20193;-68
2022/07/19 12:22:53;;;;;;;4.95;2.70;;;36.90;71.30;;;;;;4940018;29;20205;-68
2022/07/19 12:25:36;;;;;;;3.47;2.30;;;37.20;72.00;;;;;;4941774;29;20198;-68
2022/07/19 12:28:03;;;;;;;7.68;2.60;;;37.30;71.00;;;;;;4942218;28;20215;-68
2022/07/19 12:30:30;;;;;;;3.50;2.50;;;37.30;70.30;;;;;;4941462;28;20232;-68
2022/07/19 12:33:26;;;;;;;5.25;2.30;;;37.40;70.00;;;;;;4941095;29;20277;-68
2022/07/19 12:35:53;;;;;;;4.63;2.20;;;37.50;70.50;;;;;;4933176;28;20210;-68
2022/07/19 12:38:29;;;;;;;6.50;2.60;;;37.50;70.80;;;;;;4942727;29;20584;-68
2022/07/19 12:41:05;;;;;;;4.22;2.50;;;37.60;70.10;;;;;;4937690;28;20224;-68
2022/07/19 12:43:32;;;;;;;2.90;2.22;;;37.60;69.60;;;;;;4934663;29;20201;-68
2022/07/19 12:46:01;;;;;;;8.20;2.78;;;37.70;70.00;;;;;;4938408;29;20202;-68
2022/07/19 12:48:28;;;;;;;3.88;2.45;;;37.60;70.10;;;;;;4936064;29;20225;-68
2022/07/19 12:50:55;;;;;;;4.00;2.40;;;37.70;71.10;;;;;;4942018;28;20229;-68
2022/07/19 12:53:22;;;;;;;4.68;2.60;;;37.80;70.30;;;;;;4937636;29;20689;-68
2022/07/19 12:55:49;;;;;;;4.38;2.88;;;37.90;70.80;;;;;;4941610;28;20736;-69
2022/07/19 13:01:17;;;;;;;4.05;2.63;;;38.00;69.30;;;;;;4948142;28;20215;-68